Terminal Aerodrome Forecast
Issued by NWS Salt Lake City, UT

Home | Current Version | Previous Version | Text Only | Print | Product List | Glossary On
Versions: 1 2 3 4 5 6 7 8 9 10 11 12 13 14 15 16 17 18 19 20 21 22 23 24 25 26 27 28 29 30 31
000
FTUS45 KSLC 250250 AAA
TAFSLC
TAF AMD
KSLC 250250Z 2503/2606 17011G18KT P6SM SCT090 BKN150
     FM251000 26010KT P6SM VCSH SCT040 BKN060
     FM251400 31006KT 6SM -RA SCT020 OVC040
     FM252100 32007KT P6SM VCSH SCT040 BKN080
     FM260100 31005KT P6SM SCT080 BKN120=

USA.gov is the U.S. government's official web portal to all federal, state and local government web resources and services.